createdAt,value
2022-10-30T00:00:20.354Z,100559.94
2022-10-30T00:01:13.997Z,100558.75
2022-10-30T00:02:01.113Z,100558.75
2022-10-30T00:02:34.960Z,100549.75
2022-10-30T00:03:26.981Z,100556.34
2022-10-30T00:04:07.115Z,100540.13
2022-10-30T00:04:48.072Z,100553.47
2022-10-30T00:05:28.010Z,100553.47
2022-10-30T00:06:12.180Z,100558.59
2022-10-30T00:06:52.235Z,100559.44
2022-10-30T00:07:32.082Z,100559.44
2022-10-30T00:08:12.069Z,100556.03
2022-10-30T00:08:53.113Z,100556.72
2022-10-30T00:09:34.173Z,100543.22
2022-10-30T00:10:15.102Z,100555.47
2022-10-30T00:10:57.053Z,100538.25
2022-10-30T00:11:37.078Z,100561.31
2022-10-30T00:12:16.998Z,100558.59
2022-10-30T00:12:58.150Z,100555.88
2022-10-30T00:13:38.240Z,100537.44
2022-10-30T00:14:18.484Z,100548.88
2022-10-30T00:14:58.987Z,100561.31
2022-10-30T00:15:40.107Z,100558.59
2022-10-30T00:16:19.999Z,100551.44
2022-10-30T00:17:00.140Z,100557.91
2022-10-30T00:17:39.975Z,100556.91
2022-10-30T00:18:21.098Z,100557.91
2022-10-30T00:19:00.983Z,100552.06
2022-10-30T00:19:41.083Z,100560.47
2022-10-30T00:20:22.009Z,100556.34
2022-10-30T00:21:46.992Z,100562.34
2022-10-30T00:22:27.205Z,100565.75
2022-10-30T00:23:07.048Z,100564.22
2022-10-30T00:23:54.235Z,100555.19
2022-10-30T00:24:34.027Z,100555.47
2022-10-30T00:25:15.168Z,100542.84
2022-10-30T00:25:56.087Z,100559.63
2022-10-30T00:26:36.123Z,100559.78
2022-10-30T00:27:16.090Z,100562.34
2022-10-30T00:27:56.116Z,100540.13
2022-10-30T00:28:36.118Z,100542.44
2022-10-30T00:29:16.077Z,100560.63
2022-10-30T00:29:55.968Z,100564.38
2022-10-30T00:30:37.209Z,100556.91
2022-10-30T00:31:18.018Z,100543.84
2022-10-30T00:31:59.077Z,100562.97
2022-10-30T00:32:38.992Z,100556.44
2022-10-30T00:33:20.095Z,100557.81
2022-10-30T00:34:02.006Z,100562.19
2022-10-30T00:34:42.030Z,100558.31
2022-10-30T00:35:22.034Z,100558.94
2022-10-30T00:36:02.090Z,100562.13
2022-10-30T00:36:44.081Z,100557.38
2022-10-30T00:37:24.038Z,100564.22
2022-10-30T00:38:07.106Z,100565.09
2022-10-30T00:38:47.150Z,100566.09
2022-10-30T00:39:27.008Z,100555.34
2022-10-30T00:40:08.114Z,100568.19
2022-10-30T00:40:48.012Z,100563.03
2022-10-30T00:41:30.067Z,100559.31
2022-10-30T00:42:11.120Z,100559.84
2022-10-30T00:42:52.257Z,100553.84
2022-10-30T00:43:40.988Z,100567.41
2022-10-30T00:44:45.036Z,100549.31
2022-10-30T00:45:25.015Z,100564.50
2022-10-30T00:46:28.051Z,100567.22
2022-10-30T00:47:13.155Z,100566.09
2022-10-30T00:48:00.675Z,100565.06
2022-10-30T00:48:42.059Z,100559.06
2022-10-30T00:49:24.038Z,100565.75
2022-10-30T00:50:17.174Z,100556.13
2022-10-30T00:50:58.208Z,100533.19
2022-10-30T00:51:50.159Z,100560.41
2022-10-30T00:52:31.224Z,100559.22
2022-10-30T00:53:29.946Z,100561.25
2022-10-30T00:54:23.969Z,100528.38
2022-10-30T00:55:32.951Z,100551.00
2022-10-30T00:56:27.968Z,100559.69
2022-10-30T00:57:24.038Z,100549.59
2022-10-30T00:58:06.091Z,100558.72
2022-10-30T00:58:53.060Z,100554.41
2022-10-30T00:59:37.959Z,100566.72
2022-10-30T01:00:19.112Z,100561.91
2022-10-30T01:01:03.064Z,100546.50
2022-10-30T01:01:47.177Z,100552.72
2022-10-30T01:02:28.117Z,100552.72
2022-10-30T01:03:15.012Z,100556.13
2022-10-30T01:04:14.983Z,100542.75
2022-10-30T01:06:08.050Z,100551.63
2022-10-30T01:07:04.087Z,100555.03
2022-10-30T01:07:58.411Z,100560.78
2022-10-30T01:08:41.051Z,100553.00
2022-10-30T01:09:22.137Z,100553.72
2022-10-30T01:10:02.974Z,100551.31
2022-10-30T01:10:43.123Z,100539.34
2022-10-30T01:11:24.025Z,100557.22
2022-10-30T01:12:05.530Z,100546.19
2022-10-30T01:12:46.979Z,100544.16
2022-10-30T01:13:29.184Z,100550.16
2022-10-30T01:14:13.700Z,100534.44
2022-10-30T01:15:03.338Z,100548.13
2022-10-30T01:15:49.199Z,100528.13
2022-10-30T01:16:53.076Z,100538.06
2022-10-30T01:17:49.003Z,100551.44
2022-10-30T01:19:36.962Z,100558.59
2022-10-30T01:21:03.015Z,100554.00
2022-10-30T01:22:36.938Z,100550.81
2022-10-30T01:23:50.087Z,100547.78
2022-10-30T01:25:02.000Z,100535.09
2022-10-30T01:26:43.942Z,100556.66
2022-10-30T01:27:53.006Z,100553.22
2022-10-30T01:29:12.948Z,100555.56
2022-10-30T01:30:34.036Z,100551.38
2022-10-30T01:31:35.004Z,100550.34
2022-10-30T01:32:51.932Z,100544.72
2022-10-30T01:34:10.991Z,100538.97
2022-10-30T01:35:58.106Z,100551.41
2022-10-30T01:36:59.988Z,100531.81
2022-10-30T01:38:23.966Z,100546.44
2022-10-30T01:39:32.937Z,100541.63
2022-10-30T01:40:29.893Z,100538.84
2022-10-30T01:41:16.964Z,100534.25
2022-10-30T01:41:51.020Z,100546.38
2022-10-30T01:43:02.944Z,100544.28
2022-10-30T01:43:37.364Z,100535.44
2022-10-30T01:44:38.065Z,100530.28
2022-10-30T01:45:13.059Z,100545.69
2022-10-30T01:46:08.940Z,100541.88
2022-10-30T01:47:13.002Z,100541.75
2022-10-30T01:49:00.932Z,100539.16
2022-10-30T01:50:22.997Z,100543.75
2022-10-30T01:51:49.095Z,100532.06
2022-10-30T01:52:32.008Z,100539.78
2022-10-30T01:53:35.047Z,100532.97
2022-10-30T01:54:30.927Z,100514.16
2022-10-30T01:55:41.089Z,100532.06
2022-10-30T01:56:46.936Z,100535.97
2022-10-30T01:58:06.940Z,100528.84
2022-10-30T01:59:27.928Z,100513.59
2022-10-30T02:00:28.986Z,100535.28
2022-10-30T02:01:22.991Z,100520.34
2022-10-30T02:02:18.074Z,100530.84
2022-10-30T02:03:12.007Z,100525.25
2022-10-30T02:04:05.950Z,100510.72
2022-10-30T02:04:59.965Z,100525.03
2022-10-30T02:05:59.944Z,100523.00
2022-10-30T02:06:54.875Z,100527.25
2022-10-30T02:07:49.886Z,100523.00
2022-10-30T02:08:36.934Z,100520.66
2022-10-30T02:09:11.985Z,100518.63
2022-10-30T02:09:59.941Z,100525.78
2022-10-30T02:10:33.988Z,100519.81
2022-10-30T02:11:21.916Z,100527.50
2022-10-30T02:11:57.012Z,100511.25
2022-10-30T02:12:44.891Z,100522.84
2022-10-30T02:13:18.978Z,100527.25
2022-10-30T02:14:01.897Z,100521.13
2022-10-30T02:14:46.979Z,100517.56
2022-10-30T02:15:27.936Z,100506.97
2022-10-30T02:16:07.991Z,100513.50
2022-10-30T02:16:53.913Z,100519.59
2022-10-30T02:17:35.020Z,100520.28
2022-10-30T02:18:16.889Z,100516.16
2022-10-30T02:18:56.959Z,100503.88
2022-10-30T02:19:37.915Z,100517.56
2022-10-30T02:20:26.955Z,100510.41
2022-10-30T02:21:06.910Z,100501.28
2022-10-30T02:21:46.991Z,100508.69
2022-10-30T02:22:26.981Z,100495.81
2022-10-30T02:23:07.697Z,100503.16
2022-10-30T02:23:49.900Z,100513.44
2022-10-30T02:24:29.951Z,100505.25
2022-10-30T02:25:10.913Z,100487.00
2022-10-30T02:25:52.003Z,100507.28
2022-10-30T02:26:31.880Z,100495.06
2022-10-30T02:27:11.941Z,100498.56
2022-10-30T02:27:51.860Z,100500.78
2022-10-30T02:28:31.961Z,100499.75
2022-10-30T02:29:11.887Z,100503.13
2022-10-30T02:29:52.057Z,100498.69
2022-10-30T02:30:32.953Z,100493.88
2022-10-30T02:31:12.944Z,100493.88
2022-10-30T02:31:53.881Z,100499.66
2022-10-30T02:32:34.014Z,100492.84
2022-10-30T02:33:13.945Z,100487.53
2022-10-30T02:33:53.941Z,100496.88
2022-10-30T02:34:34.849Z,100494.91
2022-10-30T02:35:15.981Z,100488.31
2022-10-30T02:35:56.892Z,100498.88
2022-10-30T02:36:37.037Z,100492.59
2022-10-30T02:37:16.883Z,100493.44
2022-10-30T02:37:57.183Z,100496.06
2022-10-30T02:38:37.896Z,100495.06
2022-10-30T02:39:18.118Z,100479.69
2022-10-30T02:39:57.865Z,100497.03
2022-10-30T02:40:37.998Z,100499.50
2022-10-30T02:41:18.879Z,100498.63
2022-10-30T02:42:01.920Z,100503.94
2022-10-30T02:42:42.853Z,100506.31
2022-10-30T02:43:22.923Z,100509.63
2022-10-30T02:44:04.835Z,100499.19
2022-10-30T02:44:44.935Z,100510.88
2022-10-30T02:45:25.917Z,100504.03
2022-10-30T02:46:06.207Z,100506.13
2022-10-30T02:46:47.931Z,100507.16
2022-10-30T02:47:28.012Z,100513.59
2022-10-30T02:48:07.930Z,100510.56
2022-10-30T02:48:47.952Z,100518.59
2022-10-30T02:49:27.849Z,100508.22
2022-10-30T02:50:07.938Z,100516.78
2022-10-30T02:50:47.862Z,100518.81
2022-10-30T02:51:27.953Z,100518.47
2022-10-30T02:52:08.856Z,100508.56
2022-10-30T02:53:02.879Z,100524.19
2022-10-30T02:53:56.961Z,100531.84
2022-10-30T02:54:50.859Z,100530.69
2022-10-30T02:55:44.845Z,100531.22
2022-10-30T02:56:38.818Z,100529.84
2022-10-30T02:57:25.922Z,100534.59
2022-10-30T02:58:00.993Z,100541.84
2022-10-30T02:58:48.840Z,100533.34
2022-10-30T02:59:22.947Z,100532.81
2022-10-30T03:00:11.835Z,100539.97
2022-10-30T03:00:46.050Z,100533.44
2022-10-30T03:01:32.964Z,100548.97
2022-10-30T03:02:07.010Z,100529.06
2022-10-30T03:02:47.952Z,100542.59
2022-10-30T03:03:27.946Z,100540.88
2022-10-30T03:04:07.807Z,100545.00
2022-10-30T03:04:47.959Z,100538.03
2022-10-30T03:05:28.823Z,100548.03
2022-10-30T03:06:10.922Z,100548.38
2022-10-30T03:06:51.871Z,100535.78
2022-10-30T03:07:31.945Z,100552.41
2022-10-30T03:08:12.884Z,100553.31
2022-10-30T03:08:52.909Z,100545.16
2022-10-30T03:09:32.861Z,100549.59
2022-10-30T03:10:13.979Z,100522.47
2022-10-30T03:10:53.869Z,100546.75
2022-10-30T03:11:33.924Z,100543.19
2022-10-30T03:12:14.849Z,100552.19
2022-10-30T03:12:54.898Z,100549.78
2022-10-30T03:13:36.863Z,100548.09
2022-10-30T03:14:17.996Z,100550.81
2022-10-30T03:14:59.830Z,100542.88
2022-10-30T03:15:39.896Z,100547.97
2022-10-30T03:16:24.899Z,100556.88
2022-10-30T03:17:05.001Z,100553.44
2022-10-30T03:17:44.880Z,100544.97
2022-10-30T03:18:24.914Z,100550.50
2022-10-30T03:19:05.881Z,100554.84
2022-10-30T03:19:45.978Z,100542.78
2022-10-30T03:20:26.825Z,100539.13
2022-10-30T03:21:08.937Z,100550.31
2022-10-30T03:21:48.819Z,100555.44
2022-10-30T03:22:29.904Z,100550.88
2022-10-30T03:23:09.804Z,100547.97
2022-10-30T03:23:52.686Z,100545.66
2022-10-30T03:24:33.863Z,100546.84
2022-10-30T03:25:14.973Z,100542.94
2022-10-30T03:25:57.827Z,100534.38
2022-10-30T03:26:37.976Z,100536.19
2022-10-30T03:27:25.844Z,100528.50
2022-10-30T03:28:00.294Z,100548.50
2022-10-30T03:28:47.829Z,100543.63
2022-10-30T03:29:23.952Z,100539.22
2022-10-30T03:30:04.827Z,100535.47
2022-10-30T03:30:44.907Z,100534.00
2022-10-30T03:31:26.861Z,100531.59
2022-10-30T03:32:06.905Z,100536.88
2022-10-30T03:32:46.845Z,100528.66
2022-10-30T03:33:26.893Z,100534.16
2022-10-30T03:34:06.816Z,100535.41
2022-10-30T03:34:46.890Z,100541.06
2022-10-30T03:35:27.863Z,100530.75
2022-10-30T03:36:08.922Z,100538.47
2022-10-30T03:36:49.817Z,100539.31
2022-10-30T03:37:29.917Z,100531.28
2022-10-30T03:38:09.799Z,100532.47
2022-10-30T03:38:50.287Z,100532.63
2022-10-30T03:39:29.783Z,100536.19
2022-10-30T03:40:03.745Z,100526.22
2022-10-30T03:40:51.840Z,100531.91
2022-10-30T03:41:25.549Z,100536.47
2022-10-30T03:42:12.815Z,100532.75
2022-10-30T03:42:46.550Z,100532.63
2022-10-30T03:43:34.803Z,100536.19
2022-10-30T03:44:08.551Z,100538.59
2022-10-30T03:44:55.813Z,100544.75
2022-10-30T03:45:29.491Z,100541.00
2022-10-30T03:46:17.900Z,100540.00
2022-10-30T03:46:51.552Z,100548.84
2022-10-30T03:47:38.820Z,100525.59
2022-10-30T03:48:12.546Z,100545.88
2022-10-30T03:49:03.790Z,100546.88
2022-10-30T03:49:37.545Z,100546.56
2022-10-30T03:50:24.792Z,100544.44
2022-10-30T03:51:00.046Z,100542.13
2022-10-30T03:51:40.808Z,100540.13
2022-10-30T03:52:14.854Z,100536.41
2022-10-30T03:52:48.534Z,100541.50
2022-10-30T03:53:32.811Z,100534.38
2022-10-30T03:54:06.875Z,100540.50
2022-10-30T03:54:40.546Z,100541.50
2022-10-30T03:55:20.843Z,100544.41
2022-10-30T03:55:54.882Z,100536.41
2022-10-30T03:56:28.516Z,100544.22
2022-10-30T03:57:12.852Z,100548.53
2022-10-30T03:57:46.869Z,100540.81
2022-10-30T03:58:20.758Z,100534.69
2022-10-30T03:59:01.797Z,100542.38
2022-10-30T03:59:35.932Z,100536.69
2022-10-30T04:00:10.649Z,100534.81
2022-10-30T04:00:51.837Z,100532.25
2022-10-30T04:01:25.995Z,100545.56
2022-10-30T04:01:59.666Z,100542.84
2022-10-30T04:02:40.899Z,100533.81
2022-10-30T04:03:15.985Z,100540.81
2022-10-30T04:03:49.483Z,100532.66
2022-10-30T04:04:29.801Z,100536.91
2022-10-30T04:05:06.967Z,100539.81
2022-10-30T04:05:40.588Z,100504.56
2022-10-30T04:06:20.914Z,100539.81
2022-10-30T04:06:54.885Z,100527.91
2022-10-30T04:07:29.471Z,100518.91
2022-10-30T04:08:15.822Z,100528.38
2022-10-30T04:08:49.863Z,100532.31
2022-10-30T04:09:23.598Z,100520.06
2022-10-30T04:10:03.831Z,100523.81
2022-10-30T04:10:37.923Z,100524.50
2022-10-30T04:11:11.625Z,100528.91
2022-10-30T04:11:51.763Z,100530.63
2022-10-30T04:12:25.887Z,100529.59
2022-10-30T04:13:05.230Z,100536.41
2022-10-30T04:13:45.805Z,100532.94
2022-10-30T04:14:19.827Z,100524.09
2022-10-30T04:14:53.765Z,100531.81
2022-10-30T04:15:33.765Z,100521.38
2022-10-30T04:16:07.894Z,100533.50
2022-10-30T04:16:41.484Z,100528.38
2022-10-30T04:17:21.768Z,100539.81
2022-10-30T04:17:59.229Z,100535.38
2022-10-30T04:18:33.482Z,100539.13
2022-10-30T04:19:14.839Z,100538.09
2022-10-30T04:19:48.915Z,100532.66
2022-10-30T04:20:24.718Z,100531.25
2022-10-30T04:21:06.796Z,100537.25
2022-10-30T04:21:43.343Z,100530.56
2022-10-30T04:22:17.471Z,100532.53
2022-10-30T04:23:09.754Z,100527.69
2022-10-30T04:23:43.908Z,100543.41
2022-10-30T04:24:25.796Z,100543.75
2022-10-30T04:25:05.795Z,100549.88
2022-10-30T04:25:45.768Z,100547.47
2022-10-30T04:26:25.855Z,100539.59
2022-10-30T04:27:06.845Z,100536.88
2022-10-30T04:27:49.379Z,100544.75
2022-10-30T04:28:29.785Z,100551.91
2022-10-30T04:29:09.831Z,100548.50
2022-10-30T04:29:49.818Z,100542.31
2022-10-30T04:30:35.151Z,100546.75
2022-10-30T04:31:15.763Z,100555.94
2022-10-30T04:31:55.925Z,100545.38
2022-10-30T04:32:35.841Z,100541.63
2022-10-30T04:33:18.865Z,100547.75
2022-10-30T04:33:58.766Z,100541.63
2022-10-30T04:34:39.485Z,100540.63
2022-10-30T04:35:25.795Z,100541.78
2022-10-30T04:36:05.913Z,100532.75
2022-10-30T04:36:45.771Z,100540.78
2022-10-30T04:37:25.852Z,100538.34
2022-10-30T04:38:17.784Z,100538.19
2022-10-30T04:38:57.884Z,100533.75
2022-10-30T04:39:42.303Z,100535.78
2022-10-30T04:40:33.786Z,100533.94
2022-10-30T04:41:27.751Z,100524.50
2022-10-30T04:42:21.767Z,100529.78
2022-10-30T04:43:16.774Z,100537.09
2022-10-30T04:44:10.761Z,100525.97
2022-10-30T04:45:05.009Z,100534.31
2022-10-30T04:45:51.821Z,100520.31
2022-10-30T04:46:25.875Z,100527.00
2022-10-30T04:47:12.792Z,100509.19
2022-10-30T04:47:46.916Z,100519.97
2022-10-30T04:48:33.746Z,100526.44
2022-10-30T04:49:07.917Z,100512.44
2022-10-30T04:49:54.748Z,100519.28
2022-10-30T04:50:28.803Z,100522.00
2022-10-30T04:51:16.766Z,100514.88
2022-10-30T04:51:50.889Z,100517.59
2022-10-30T04:52:37.755Z,100512.16
2022-10-30T04:53:14.835Z,100506.00
2022-10-30T04:54:03.018Z,100517.19
2022-10-30T04:54:36.811Z,100510.34
2022-10-30T04:55:23.746Z,100501.78
2022-10-30T04:56:00.811Z,100497.50
2022-10-30T04:56:41.758Z,100507.63
2022-10-30T04:57:23.844Z,100506.34
2022-10-30T04:58:05.744Z,100511.34
2022-10-30T04:58:45.847Z,100515.94
2022-10-30T04:59:25.747Z,100516.09
2022-10-30T05:00:06.825Z,100502.09
2022-10-30T05:00:47.744Z,100507.53
2022-10-30T05:01:27.964Z,100515.69
2022-10-30T05:02:08.999Z,100512.81
2022-10-30T05:02:49.817Z,100520.97
2022-10-30T05:03:32.716Z,100516.69
2022-10-30T05:04:12.806Z,100510.84
2022-10-30T05:04:53.734Z,100506.44
2022-10-30T05:05:35.860Z,100514.13
2022-10-30T05:06:39.739Z,100522.75
2022-10-30T05:07:27.822Z,100519.31
2022-10-30T05:08:22.813Z,100511.31
2022-10-30T05:09:16.713Z,100515.72
2022-10-30T05:10:10.723Z,100520.31
2022-10-30T05:11:04.852Z,100527.63
2022-10-30T05:11:59.132Z,100518.78
2022-10-30T05:12:51.819Z,100527.47
2022-10-30T05:13:25.872Z,100523.03
2022-10-30T05:14:12.726Z,100525.91
2022-10-30T05:14:46.811Z,100515.91
2022-10-30T05:15:33.712Z,100529.06
2022-10-30T05:16:07.821Z,100525.34
2022-10-30T05:16:54.723Z,100520.22
2022-10-30T05:18:14.741Z,100518.81
2022-10-30T05:18:54.808Z,100510.94
2022-10-30T05:19:34.755Z,100527.66
2022-10-30T05:20:18.861Z,100524.53
2022-10-30T05:20:58.737Z,100521.44
2022-10-30T05:21:38.794Z,100515.72
2022-10-30T05:22:19.736Z,100526.31
2022-10-30T05:23:06.824Z,100521.44
2022-10-30T05:23:46.722Z,100521.44
2022-10-30T05:24:26.848Z,100524.16
2022-10-30T05:25:06.731Z,100526.00
2022-10-30T05:25:46.930Z,100531.41
2022-10-30T05:26:26.709Z,100528.44
2022-10-30T05:27:06.770Z,100523.75
2022-10-30T05:27:47.748Z,100521.16
2022-10-30T05:28:27.829Z,100522.03
2022-10-30T05:29:07.721Z,100513.16
2022-10-30T05:29:47.791Z,100515.44
2022-10-30T05:30:27.775Z,100521.72
2022-10-30T05:31:07.845Z,100519.16
2022-10-30T05:31:48.744Z,100518.59
2022-10-30T05:32:28.801Z,100524.28
2022-10-30T05:33:12.702Z,100512.31
2022-10-30T05:33:52.772Z,100516.00
2022-10-30T05:34:32.740Z,100529.19
2022-10-30T05:35:12.853Z,100524.59
2022-10-30T05:35:53.747Z,100520.00
2022-10-30T05:36:33.796Z,100531.56
2022-10-30T05:37:13.757Z,100531.16
2022-10-30T05:37:53.851Z,100535.22
2022-10-30T05:38:34.691Z,100536.91
2022-10-30T05:39:14.830Z,100528.03
2022-10-30T05:39:54.723Z,100540.66
2022-10-30T05:40:35.785Z,100539.22
2022-10-30T05:41:16.707Z,100541.53
2022-10-30T05:41:56.861Z,100551.53
2022-10-30T05:42:37.727Z,100548.25
2022-10-30T05:43:17.796Z,100542.69
2022-10-30T05:43:58.700Z,100540.97
2022-10-30T05:44:59.213Z,100541.66
2022-10-30T05:45:39.716Z,100534.38
2022-10-30T05:46:19.772Z,100538.38
2022-10-30T05:46:59.713Z,100539.66
2022-10-30T05:47:39.791Z,100541.22
2022-10-30T05:48:19.739Z,100540.09
2022-10-30T05:49:00.643Z,100536.69
2022-10-30T05:49:40.707Z,100544.84
2022-10-30T05:50:20.898Z,100548.25
2022-10-30T05:51:03.756Z,100536.94
2022-10-30T05:51:43.789Z,100538.94
2022-10-30T05:52:24.727Z,100547.78
2022-10-30T05:53:10.843Z,100546.94
2022-10-30T05:53:51.730Z,100547.25
2022-10-30T05:54:32.423Z,100531.41
2022-10-30T05:55:13.798Z,100533.81
2022-10-30T05:55:53.749Z,100534.69
2022-10-30T05:56:33.734Z,100516.69
2022-10-30T05:57:13.786Z,100527.81
2022-10-30T05:57:53.699Z,100525.53
2022-10-30T05:58:33.773Z,100530.38
2022-10-30T05:59:14.739Z,100532.94
2022-10-30T05:59:54.751Z,100540.13
2022-10-30T06:00:38.680Z,100530.09
2022-10-30T06:01:18.824Z,100533.53
2022-10-30T06:01:58.779Z,100530.09
2022-10-30T06:02:39.908Z,100536.81
2022-10-30T06:03:20.684Z,100529.78
2022-10-30T06:04:00.791Z,100535.94
2022-10-30T06:04:41.793Z,100539.66
2022-10-30T06:05:21.763Z,100540.38
2022-10-30T06:06:01.667Z,100540.38
2022-10-30T06:06:41.797Z,100544.09
2022-10-30T06:07:21.731Z,100544.97
2022-10-30T06:08:02.823Z,100535.22
2022-10-30T06:08:42.662Z,100542.38
2022-10-30T06:09:22.732Z,100540.66
2022-10-30T06:10:03.719Z,100541.38
2022-10-30T06:10:43.939Z,100540.66
2022-10-30T06:11:23.663Z,100542.97
2022-10-30T06:12:04.793Z,100541.50
2022-10-30T06:12:45.785Z,100540.66
2022-10-30T06:13:25.762Z,100552.09
2022-10-30T06:14:05.646Z,100548.53
2022-10-30T06:14:45.755Z,100547.25
2022-10-30T06:15:26.660Z,100542.69
2022-10-30T06:16:06.893Z,100557.28
2022-10-30T06:16:46.777Z,100546.41
2022-10-30T06:17:26.775Z,100554.56
2022-10-30T06:18:07.715Z,100555.56
2022-10-30T06:18:47.758Z,100542.53
2022-10-30T06:19:27.687Z,100553.53
2022-10-30T06:20:07.787Z,100551.84
2022-10-30T06:20:48.684Z,100548.97
2022-10-30T06:21:28.723Z,100547.41
2022-10-30T06:22:09.651Z,100544.38
2022-10-30T06:22:59.834Z,100541.81
2022-10-30T06:23:40.735Z,100549.25
2022-10-30T06:24:21.824Z,100541.09
2022-10-30T06:25:01.720Z,100535.81
2022-10-30T06:25:42.784Z,100552.84
2022-10-30T06:26:23.699Z,100547.41
2022-10-30T06:27:03.774Z,100528.56
2022-10-30T06:27:43.653Z,100540.97
2022-10-30T06:28:24.727Z,100553.53
2022-10-30T06:29:04.688Z,100552.69
2022-10-30T06:29:44.801Z,100539.53
2022-10-30T06:30:25.670Z,100555.81
2022-10-30T06:31:06.207Z,100555.94
2022-10-30T06:31:47.646Z,100533.00
2022-10-30T06:32:28.763Z,100544.09
2022-10-30T06:33:10.671Z,100551.25
2022-10-30T06:33:50.712Z,100557.69
2022-10-30T06:34:32.685Z,100543.13
2022-10-30T06:35:13.803Z,100542.53
2022-10-30T06:35:56.706Z,100540.97
2022-10-30T06:36:36.775Z,100543.13
2022-10-30T06:37:17.726Z,100550.38
2022-10-30T06:38:00.294Z,100561.38
2022-10-30T06:38:40.638Z,100562.09
2022-10-30T06:39:20.723Z,100566.56
2022-10-30T06:40:00.663Z,100563.13
2022-10-30T06:40:40.815Z,100564.09
2022-10-30T06:41:25.898Z,100567.81
2022-10-30T06:42:10.759Z,100553.53
2022-10-30T06:42:57.122Z,100560.41
2022-10-30T06:43:37.768Z,100557.28
2022-10-30T06:44:17.746Z,100559.38
2022-10-30T06:44:57.736Z,100564.53
2022-10-30T06:45:38.725Z,100556.41
2022-10-30T06:46:18.707Z,100553.69
2022-10-30T06:47:00.617Z,100555.41
2022-10-30T06:47:44.785Z,100554.53
2022-10-30T06:48:25.657Z,100558.13
2022-10-30T06:49:05.731Z,100560.53
2022-10-30T06:49:45.640Z,100552.69
2022-10-30T06:50:29.758Z,100549.41
2022-10-30T06:51:10.709Z,100547.81
2022-10-30T06:51:50.740Z,100552.13
2022-10-30T06:52:30.645Z,100540.66
2022-10-30T06:53:10.732Z,100545.78
2022-10-30T06:53:51.632Z,100552.97
2022-10-30T06:54:31.709Z,100544.94
2022-10-30T06:55:12.659Z,100542.69
2022-10-30T06:55:59.799Z,100526.06
2022-10-30T06:56:39.666Z,100558.81
2022-10-30T06:57:21.953Z,100549.94
2022-10-30T06:58:03.663Z,100548.91
2022-10-30T06:58:43.870Z,100558.94
2022-10-30T06:59:24.628Z,100556.63
2022-10-30T07:00:04.721Z,100550.06
2022-10-30T07:00:44.673Z,100534.81
2022-10-30T07:01:24.767Z,100542.03
2022-10-30T07:02:08.522Z,100536.19
2022-10-30T07:02:51.720Z,100547.72
2022-10-30T07:03:31.643Z,100548.91
2022-10-30T07:04:11.743Z,100554.75
2022-10-30T07:04:52.657Z,100551.19
2022-10-30T07:05:32.658Z,100548.00
2022-10-30T07:06:13.754Z,100553.13
2022-10-30T07:06:53.792Z,100553.28
2022-10-30T07:07:33.616Z,100546.28
2022-10-30T07:08:13.744Z,100551.28
2022-10-30T07:08:53.644Z,100544.44
2022-10-30T07:09:33.724Z,100556.25
2022-10-30T07:10:14.636Z,100552.53
2022-10-30T07:10:54.733Z,100553.09
2022-10-30T07:11:34.604Z,100557.38
2022-10-30T07:12:15.720Z,100558.22
2022-10-30T07:13:02.854Z,100554.34
2022-10-30T07:13:42.652Z,100556.91
2022-10-30T07:14:24.658Z,100553.34
2022-10-30T07:15:19.664Z,100561.06
2022-10-30T07:16:13.641Z,100562.59
2022-10-30T07:17:10.707Z,100561.59
2022-10-30T07:18:13.654Z,100551.03
2022-10-30T07:19:08.030Z,100552.28
2022-10-30T07:20:01.620Z,100561.88
2022-10-30T07:20:55.616Z,100564.44
2022-10-30T07:21:49.623Z,100554.09
2022-10-30T07:22:52.638Z,100553.22
2022-10-30T07:23:34.658Z,100562.13
2022-10-30T07:24:14.768Z,100564.50
2022-10-30T07:24:57.616Z,100565.53
2022-10-30T07:25:37.729Z,100553.56
2022-10-30T07:26:17.722Z,100568.41
2022-10-30T07:26:58.670Z,100566.94
2022-10-30T07:27:38.615Z,100565.25
2022-10-30T07:28:18.777Z,100562.94
2022-10-30T07:28:58.739Z,100566.63
2022-10-30T07:29:38.673Z,100571.78
2022-10-30T07:30:21.692Z,100576.91
2022-10-30T07:31:01.681Z,100569.47
2022-10-30T07:31:42.178Z,100571.09
2022-10-30T07:32:22.687Z,100568.50
2022-10-30T07:33:11.602Z,100575.50
2022-10-30T07:33:51.673Z,100571.09
2022-10-30T07:34:32.661Z,100555.81
2022-10-30T07:35:13.687Z,100547.78
2022-10-30T07:35:53.592Z,100552.94
2022-10-30T07:36:36.690Z,100555.75
2022-10-30T07:37:17.677Z,100565.25
2022-10-30T07:37:57.715Z,100572.38
2022-10-30T07:38:37.591Z,100566.94
2022-10-30T07:39:17.726Z,100567.41
2022-10-30T07:39:57.627Z,100560.41
2022-10-30T07:40:39.710Z,100558.66
2022-10-30T07:41:19.604Z,100561.50
2022-10-30T07:41:59.741Z,100572.38
2022-10-30T07:42:40.587Z,100571.22
2022-10-30T07:43:20.675Z,100575.19
2022-10-30T07:44:06.585Z,100570.75
2022-10-30T07:44:46.674Z,100569.13
2022-10-30T07:45:43.056Z,100580.75
2022-10-30T07:46:23.700Z,100578.88
2022-10-30T07:47:03.598Z,100578.41
2022-10-30T07:47:50.697Z,100577.41
2022-10-30T07:48:31.580Z,100581.13
2022-10-30T07:49:11.805Z,100583.84
2022-10-30T07:49:51.690Z,100582.00
2022-10-30T07:50:31.693Z,100586.88
2022-10-30T07:51:12.646Z,100585.47
2022-10-30T07:51:52.723Z,100586.88
2022-10-30T07:52:38.575Z,100574.91
2022-10-30T07:53:18.634Z,100583.47
2022-10-30T07:53:59.607Z,100590.00
2022-10-30T07:54:39.691Z,100604.91
2022-10-30T07:55:20.627Z,100578.16
2022-10-30T07:56:00.738Z,100594.41
2022-10-30T07:56:43.518Z,100594.97
2022-10-30T07:57:23.708Z,100597.56
2022-10-30T07:58:06.673Z,100570.53
2022-10-30T07:58:49.993Z,100590.97
2022-10-30T07:59:30.563Z,100585.38
2022-10-30T08:00:13.738Z,100588.50
2022-10-30T08:00:54.571Z,100582.78
2022-10-30T08:01:34.863Z,100576.50
2022-10-30T08:02:16.766Z,100582.91
2022-10-30T08:02:59.188Z,100589.59
2022-10-30T08:03:40.695Z,100563.59
2022-10-30T08:04:20.658Z,100573.03
2022-10-30T08:05:00.692Z,100576.59
2022-10-30T08:05:51.567Z,100576.59
2022-10-30T08:06:35.615Z,100568.44
2022-10-30T08:07:26.681Z,100579.22
2022-10-30T08:08:23.815Z,100572.53
2022-10-30T08:09:17.694Z,100557.94
2022-10-30T08:10:11.617Z,100553.25
2022-10-30T08:12:25.652Z,100552.16
2022-10-30T08:13:09.629Z,100583.97
2022-10-30T08:13:50.793Z,100568.03
2022-10-30T08:14:31.684Z,100554.19
2022-10-30T08:15:14.747Z,100582.09
2022-10-30T08:16:02.659Z,100576.81
2022-10-30T08:16:45.525Z,100549.16
2022-10-30T08:17:28.725Z,100569.34
2022-10-30T08:18:11.680Z,100557.06
2022-10-30T08:19:00.676Z,100550.53
2022-10-30T08:19:44.775Z,100568.72
2022-10-30T08:20:42.562Z,100569.81
2022-10-30T08:21:30.433Z,100553.78
2022-10-30T08:22:35.173Z,100565.22